createdAt,value
2019-02-27T00:00:01.124Z,33.66
2019-02-27T00:05:01.082Z,33.91
2019-02-27T00:10:01.081Z,33.62
2019-02-27T00:15:02.144Z,33.70
2019-02-27T00:20:04.114Z,33.83
2019-02-27T00:25:03.438Z,33.88
2019-02-27T00:30:04.669Z,33.63
2019-02-27T00:35:01.078Z,33.64
2019-02-27T00:40:05.461Z,33.74
2019-02-27T00:45:01.073Z,33.57
2019-02-27T00:50:05.651Z,33.81
2019-02-27T00:55:04.325Z,33.63
2019-02-27T01:00:01.090Z,33.68
2019-02-27T01:05:01.099Z,33.63
2019-02-27T01:10:01.081Z,33.64
2019-02-27T01:15:01.084Z,33.64
2019-02-27T01:20:01.474Z,33.51
2019-02-27T01:25:01.084Z,33.45
2019-02-27T01:30:01.102Z,33.86
2019-02-27T01:35:01.087Z,33.50
2019-02-27T01:40:01.095Z,33.77
2019-02-27T01:45:01.082Z,33.64
2019-02-27T01:50:01.071Z,33.71
2019-02-27T01:55:01.071Z,33.44
2019-02-27T02:00:01.092Z,33.46
2019-02-27T02:05:02.199Z,33.69
2019-02-27T02:10:01.070Z,33.46
2019-02-27T02:15:01.437Z,33.71
2019-02-27T02:20:01.082Z,33.67
2019-02-27T02:25:01.095Z,33.60
2019-02-27T02:30:01.091Z,33.72
2019-02-27T02:35:01.100Z,33.49
2019-02-27T02:40:01.579Z,33.74
2019-02-27T02:45:01.087Z,33.60
2019-02-27T02:50:01.115Z,33.62
2019-02-27T02:55:01.103Z,33.46
2019-02-27T03:00:01.729Z,33.67
2019-02-27T03:05:01.111Z,33.52
2019-02-27T03:10:06.978Z,33.69
2019-02-27T03:15:01.082Z,33.58
2019-02-27T03:20:01.088Z,33.40
2019-02-27T03:25:04.395Z,33.55
2019-02-27T03:30:01.389Z,33.74
2019-02-27T03:35:01.110Z,33.32
2019-02-27T03:40:01.075Z,33.74
2019-02-27T03:45:01.498Z,33.37
2019-02-27T03:50:01.154Z,33.31
2019-02-27T03:55:01.082Z,33.74
2019-02-27T04:00:01.079Z,33.52
2019-02-27T04:05:05.418Z,33.37
2019-02-27T04:10:01.074Z,33.58
2019-02-27T04:15:01.401Z,33.43
2019-02-27T04:20:01.100Z,33.43
2019-02-27T04:25:01.099Z,33.44
2019-02-27T04:30:01.104Z,33.61
2019-02-27T04:35:01.113Z,33.60
2019-02-27T04:40:01.070Z,33.26
2019-02-27T04:45:01.088Z,33.46
2019-02-27T04:50:01.101Z,33.28
2019-02-27T04:55:01.591Z,33.30
2019-02-27T05:00:01.087Z,33.25
2019-02-27T05:05:01.082Z,33.31
2019-02-27T05:10:01.118Z,33.38
2019-02-27T05:15:03.965Z,33.38
2019-02-27T05:20:01.120Z,33.15
2019-02-27T05:25:01.044Z,33.28
2019-02-27T05:30:01.039Z,33.12
2019-02-27T05:35:01.045Z,33.05
2019-02-27T05:40:01.096Z,33.30
2019-02-27T05:45:01.075Z,33.33
2019-02-27T05:50:01.521Z,33.32
2019-02-27T05:55:01.134Z,33.05
2019-02-27T06:00:02.730Z,33.31
2019-02-27T06:05:01.110Z,33.37
2019-02-27T06:10:01.132Z,33.13
2019-02-27T06:15:01.077Z,33.04
2019-02-27T06:20:01.098Z,33.18
2019-02-27T06:25:01.108Z,33.31
2019-02-27T06:30:01.071Z,32.94
2019-02-27T06:35:01.080Z,32.84
2019-02-27T06:40:01.088Z,32.91
2019-02-27T06:45:01.076Z,33.16
2019-02-27T06:50:01.076Z,32.81
2019-02-27T06:55:01.081Z,33.21
2019-02-27T07:00:02.769Z,33.05
2019-02-27T07:05:01.084Z,33.13
2019-02-27T07:10:01.079Z,33.12
2019-02-27T07:15:01.238Z,33.32
2019-02-27T07:20:01.056Z,33.17
2019-02-27T07:25:01.072Z,33.17
2019-02-27T07:30:01.070Z,33.00
2019-02-27T07:35:01.270Z,32.94
2019-02-27T07:40:01.025Z,33.19
2019-02-27T07:45:01.086Z,32.96
2019-02-27T07:50:02.755Z,32.98
2019-02-27T07:55:01.303Z,33.01
2019-02-27T08:00:01.075Z,33.12
2019-02-27T08:05:01.096Z,33.19
2019-02-27T08:10:04.047Z,32.85
2019-02-27T08:15:01.105Z,33.10
2019-02-27T08:20:01.091Z,33.26
2019-02-27T08:25:01.077Z,33.02
2019-02-27T08:30:01.039Z,33.25
2019-02-27T08:35:01.058Z,32.97
2019-02-27T08:40:01.106Z,33.08
2019-02-27T08:45:01.083Z,33.25
2019-02-27T08:50:01.073Z,33.13
2019-02-27T08:55:05.439Z,33.00
2019-02-27T09:00:01.091Z,32.95
2019-02-27T09:05:01.075Z,32.94
2019-02-27T09:10:01.358Z,33.13
2019-02-27T09:15:01.060Z,33.21
2019-02-27T09:20:01.082Z,32.91
2019-02-27T09:25:01.099Z,32.92
2019-02-27T09:30:02.697Z,33.03
2019-02-27T09:35:01.366Z,33.29
2019-02-27T09:40:04.802Z,32.86
2019-02-27T09:45:01.038Z,33.25
2019-02-27T09:50:01.411Z,33.14
2019-02-27T09:55:01.087Z,33.28
2019-02-27T10:00:02.899Z,32.97
2019-02-27T10:05:03.030Z,33.15
2019-02-27T10:10:01.417Z,33.35
2019-02-27T10:15:01.102Z,33.34
2019-02-27T10:20:02.530Z,33.11
2019-02-27T10:25:01.091Z,33.25
2019-02-27T10:30:01.081Z,33.24
2019-02-27T10:35:01.090Z,33.21
2019-02-27T10:40:01.084Z,33.06
2019-02-27T10:45:01.060Z,33.09
2019-02-27T10:50:02.163Z,33.25
2019-02-27T10:55:01.068Z,33.19
2019-02-27T11:00:01.130Z,33.01
2019-02-27T11:05:01.094Z,33.14
2019-02-27T11:10:01.100Z,33.23
2019-02-27T11:15:01.095Z,33.00
2019-02-27T11:20:01.094Z,33.19
2019-02-27T11:25:01.083Z,33.27
2019-02-27T11:30:02.999Z,33.33
2019-02-27T11:35:01.091Z,33.35
2019-02-27T11:40:01.093Z,33.08
2019-02-27T11:45:01.551Z,33.35
2019-02-27T11:50:01.032Z,33.18
2019-02-27T11:55:01.050Z,33.02
2019-02-27T12:00:01.087Z,33.51
2019-02-27T12:05:01.095Z,33.31
2019-02-27T12:10:01.072Z,33.31
2019-02-27T12:15:01.077Z,33.30
2019-02-27T12:20:01.111Z,33.28
2019-02-27T12:25:01.111Z,33.42
2019-02-27T12:30:03.008Z,33.25
2019-02-27T12:35:03.035Z,33.33
2019-02-27T12:40:01.055Z,33.61
2019-02-27T12:45:01.427Z,33.46
2019-02-27T12:50:01.565Z,33.50
2019-02-27T12:55:01.879Z,33.36
2019-02-27T13:00:01.089Z,33.31
2019-02-27T13:05:02.321Z,33.59
2019-02-27T13:10:02.410Z,33.42
2019-02-27T13:15:01.124Z,33.44
2019-02-27T13:20:02.987Z,33.35
2019-02-27T13:25:01.640Z,33.32
2019-02-27T13:30:08.781Z,33.39
2019-02-27T13:35:01.061Z,33.51
2019-02-27T13:40:01.330Z,33.38
2019-02-27T13:45:01.099Z,33.56
2019-02-27T13:50:01.077Z,33.38
2019-02-27T13:55:01.105Z,33.34
2019-02-27T14:00:01.125Z,33.50
2019-02-27T14:05:01.109Z,33.49
2019-02-27T14:10:01.632Z,33.50
2019-02-27T14:15:01.092Z,33.45
2019-02-27T14:20:01.104Z,33.65
2019-02-27T14:25:01.105Z,33.70
2019-02-27T14:30:03.717Z,33.55
2019-02-27T14:35:01.695Z,33.35
2019-02-27T14:40:04.138Z,33.45
2019-02-27T14:45:03.264Z,33.76
2019-02-27T14:50:01.107Z,33.51
2019-02-27T14:55:03.515Z,33.48
2019-02-27T15:00:02.316Z,33.59
2019-02-27T15:05:06.106Z,33.68
2019-02-27T15:10:01.126Z,33.60
2019-02-27T15:15:01.101Z,33.44
2019-02-27T15:20:04.836Z,33.73
2019-02-27T15:25:01.110Z,33.87
2019-02-27T15:30:01.058Z,33.57
2019-02-27T15:35:01.095Z,33.77
2019-02-27T15:40:01.076Z,33.54
2019-02-27T15:45:01.069Z,33.57
2019-02-27T15:50:02.665Z,33.70
2019-02-27T15:55:01.088Z,33.70
2019-02-27T16:00:01.061Z,33.77
2019-02-27T16:05:01.413Z,33.92
2019-02-27T16:10:06.783Z,33.76
2019-02-27T16:15:01.088Z,33.46
2019-02-27T16:20:01.098Z,33.73
2019-02-27T16:25:01.090Z,33.86
2019-02-27T16:30:01.060Z,33.97
2019-02-27T16:35:01.083Z,33.89
2019-02-27T16:40:01.099Z,33.65
2019-02-27T16:45:01.109Z,34.03
2019-02-27T16:50:01.459Z,33.72
2019-02-27T16:55:02.366Z,33.74
2019-02-27T17:00:01.851Z,33.65
2019-02-27T17:05:01.094Z,33.65
2019-02-27T17:10:01.105Z,33.65
2019-02-27T17:15:01.097Z,33.65
2019-02-27T17:20:01.677Z,33.55
2019-02-27T17:25:02.056Z,33.50
2019-02-27T17:30:01.187Z,33.75
2019-02-27T17:35:01.697Z,33.83
2019-02-27T17:40:02.229Z,33.66
2019-02-27T17:45:01.042Z,33.81
2019-02-27T17:50:01.065Z,33.82
2019-02-27T17:55:03.561Z,34.08
2019-02-27T18:00:01.065Z,34.29
2019-02-27T18:05:02.289Z,34.18
2019-02-27T18:10:02.250Z,34.44
2019-02-27T18:15:01.088Z,34.57
2019-02-27T18:20:01.103Z,34.62
2019-02-27T18:25:01.079Z,34.79
2019-02-27T18:30:01.072Z,34.94
2019-02-27T18:35:01.058Z,34.89
2019-02-27T18:40:01.060Z,35.18
2019-02-27T18:45:01.243Z,35.00
2019-02-27T18:50:01.188Z,35.23
2019-02-27T18:55:01.310Z,35.09
2019-02-27T19:00:02.363Z,35.42
2019-02-27T19:05:01.062Z,35.51
2019-02-27T19:10:03.848Z,35.73
2019-02-27T19:15:01.224Z,35.68
2019-02-27T19:20:01.109Z,35.88
2019-02-27T19:25:01.066Z,36.01
2019-02-27T19:30:06.374Z,35.82
2019-02-27T19:35:01.087Z,35.78
2019-02-27T19:40:01.281Z,35.94
2019-02-27T19:50:02.074Z,35.35
2019-02-27T19:55:01.057Z,35.82
2019-02-27T20:00:01.070Z,35.89
2019-02-27T20:05:01.065Z,35.59
2019-02-27T20:10:01.067Z,35.43
2019-02-27T20:15:01.073Z,35.85
2019-02-27T20:20:04.095Z,36.42
2019-02-27T20:25:01.063Z,36.33
2019-02-27T20:30:01.474Z,36.51
2019-02-27T20:35:01.134Z,36.73
2019-02-27T20:40:01.141Z,36.84
2019-02-27T20:45:01.112Z,36.54
2019-02-27T20:50:01.070Z,36.96
2019-02-27T20:55:01.065Z,37.33
2019-02-27T21:00:02.720Z,37.00
2019-02-27T21:05:01.100Z,37.33
2019-02-27T21:10:01.567Z,37.55
2019-02-27T21:15:01.096Z,37.38
2019-02-27T21:20:01.099Z,37.44
2019-02-27T21:25:01.101Z,37.49
2019-02-27T21:30:01.063Z,37.82
2019-02-27T21:35:01.067Z,38.02
2019-02-27T21:40:03.105Z,38.11
2019-02-27T21:45:03.652Z,37.92
2019-02-27T21:50:03.678Z,37.80
2019-02-27T21:55:01.116Z,38.58
2019-02-27T22:00:01.104Z,38.07
2019-02-27T22:05:01.593Z,38.17
2019-02-27T22:10:01.109Z,38.39
2019-02-27T22:15:01.102Z,38.48
2019-02-27T22:20:01.118Z,38.55
2019-02-27T22:25:01.100Z,38.68
2019-02-27T22:30:01.152Z,38.29
2019-02-27T22:35:02.591Z,38.68
2019-02-27T22:40:06.542Z,38.56
2019-02-27T22:45:03.952Z,38.76
2019-02-27T22:50:06.048Z,38.66
2019-02-27T22:55:01.092Z,38.84
2019-02-27T23:00:01.114Z,38.65
2019-02-27T23:05:01.370Z,39.04
2019-02-27T23:10:01.062Z,38.94
2019-02-27T23:15:01.118Z,38.89
2019-02-27T23:20:01.106Z,38.85
2019-02-27T23:25:01.111Z,38.86
2019-02-27T23:30:01.500Z,38.64
2019-02-27T23:35:01.094Z,38.82
2019-02-27T23:40:01.478Z,38.50
2019-02-27T23:45:01.104Z,38.38
2019-02-27T23:50:01.112Z,38.47
2019-02-27T23:55:01.114Z,38.65
